sensor_id;sensor_type;location;lat;lon;timestamp;pressure;altitude;pressure_sealevel;temperature;humidity
59053;BME280;44843;44.728;10.396;2023-01-28T00:02:24;100480.31;;;2.65;100.00
59053;BME280;44843;44.728;10.396;2023-01-28T00:04:49;100481.94;;;2.70;100.00
59053;BME280;44843;44.728;10.396;2023-01-28T00:07:16;100487.72;;;2.43;100.00
59053;BME280;44843;44.728;10.396;2023-01-28T00:09:41;100483.63;;;2.35;100.00
59053;BME280;44843;44.728;10.396;2023-01-28T00:12:06;100481.03;;;2.35;100.00
59053;BME280;44843;44.728;10.396;2023-01-28T00:14:32;100478.16;;;2.47;100.00
59053;BME280;44843;44.728;10.396;2023-01-28T00:16:57;100471.38;;;2.44;100.00
59053;BME280;44843;44.728;10.396;2023-01-28T00:19:22;100472.84;;;2.55;100.00
59053;BME280;44843;44.728;10.396;2023-01-28T00:21:48;100479.63;;;2.59;100.00
59053;BME280;44843;44.728;10.396;2023-01-28T00:24:14;100477.59;;;2.72;100.00
59053;BME280;44843;44.728;10.396;2023-01-28T00:26:39;100473.84;;;2.49;100.00
59053;BME280;44843;44.728;10.396;2023-01-28T00:29:05;100470.16;;;2.59;100.00
59053;BME280;44843;44.728;10.396;2023-01-28T00:31:30;100477.53;;;2.73;100.00
59053;BME280;44843;44.728;10.396;2023-01-28T00:33:56;100476.69;;;2.74;100.00
59053;BME280;44843;44.728;10.396;2023-01-28T00:36:24;100480.09;;;2.75;100.00
59053;BME280;44843;44.728;10.396;2023-01-28T00:38:51;100479.66;;;2.57;100.00
59053;BME280;44843;44.728;10.396;2023-01-28T00:41:18;100484.56;;;2.66;100.00
59053;BME280;44843;44.728;10.396;2023-01-28T00:43:46;100480.41;;;2.62;100.00
59053;BME280;44843;44.728;10.396;2023-01-28T00:46:13;100494.41;;;2.51;100.00
59053;BME280;44843;44.728;10.396;2023-01-28T00:48:39;100486.69;;;2.51;100.00
59053;BME280;44843;44.728;10.396;2023-01-28T00:51:07;100491.56;;;2.63;100.00
59053;BME280;44843;44.728;10.396;2023-01-28T00:53:32;100491.34;;;2.71;100.00
59053;BME280;44843;44.728;10.396;2023-01-28T00:56:04;100491.34;;;2.71;100.00
59053;BME280;44843;44.728;10.396;2023-01-28T00:58:30;100492.81;;;2.82;100.00
59053;BME280;44843;44.728;10.396;2023-01-28T01:00:55;100490.38;;;2.76;100.00
59053;BME280;44843;44.728;10.396;2023-01-28T01:03:21;100494.34;;;2.88;100.00
59053;BME280;44843;44.728;10.396;2023-01-28T01:05:46;100483.22;;;2.87;100.00
59053;BME280;44843;44.728;10.396;2023-01-28T01:08:12;100493.53;;;2.87;100.00
59053;BME280;44843;44.728;10.396;2023-01-28T01:10:38;100492.28;;;3.02;100.00
59053;BME280;44843;44.728;10.396;2023-01-28T01:13:04;100491.06;;;3.17;100.00
59053;BME280;44843;44.728;10.396;2023-01-28T01:15:30;100491.25;;;3.09;100.00
59053;BME280;44843;44.728;10.396;2023-01-28T01:17:56;100494.81;;;3.04;100.00
59053;BME280;44843;44.728;10.396;2023-01-28T01:20:25;100500.09;;;2.99;100.00
59053;BME280;44843;44.728;10.396;2023-01-28T01:22:51;100500.41;;;2.87;100.00
59053;BME280;44843;44.728;10.396;2023-01-28T01:25:17;100502.16;;;2.86;100.00
59053;BME280;44843;44.728;10.396;2023-01-28T01:27:43;100504.66;;;2.88;100.00
59053;BME280;44843;44.728;10.396;2023-01-28T01:30:11;100502.22;;;2.82;100.00
59053;BME280;44843;44.728;10.396;2023-01-28T01:32:36;100502.16;;;2.86;100.00
59053;BME280;44843;44.728;10.396;2023-01-28T01:35:03;100510.66;;;2.88;100.00
59053;BME280;44843;44.728;10.396;2023-01-28T01:37:33;100504.50;;;2.96;100.00
59053;BME280;44843;44.728;10.396;2023-01-28T01:39:59;100510.56;;;2.93;100.00
59053;BME280;44843;44.728;10.396;2023-01-28T01:42:26;100511.56;;;2.87;100.00
59053;BME280;44843;44.728;10.396;2023-01-28T01:45:02;100515.81;;;2.88;100.00
59053;BME280;44843;44.728;10.396;2023-01-28T01:50:04;100533.75;;;2.93;100.00
59053;BME280;44843;44.728;10.396;2023-01-28T01:52:34;100534.56;;;2.95;100.00
59053;BME280;44843;44.728;10.396;2023-01-28T01:55:01;100535.19;;;3.03;100.00
59053;BME280;44843;44.728;10.396;2023-01-28T01:57:31;100536.63;;;3.15;100.00
59053;BME280;44843;44.728;10.396;2023-01-28T02:00:00;100534.94;;;3.14;100.00
59053;BME280;44843;44.728;10.396;2023-01-28T02:02:39;100532.31;;;3.16;100.00
59053;BME280;44843;44.728;10.396;2023-01-28T02:05:07;100539.53;;;3.01;100.00
59053;BME280;44843;44.728;10.396;2023-01-28T02:07:33;100532.06;;;2.91;100.00
59053;BME280;44843;44.728;10.396;2023-01-28T02:09:59;100542.19;;;2.98;100.00
59053;BME280;44843;44.728;10.396;2023-01-28T02:12:33;100536.81;;;3.07;100.00
59053;BME280;44843;44.728;10.396;2023-01-28T02:15:06;100534.19;;;3.11;100.00
59053;BME280;44843;44.728;10.396;2023-01-28T02:17:32;100538.34;;;3.15;100.00
59053;BME280;44843;44.728;10.396;2023-01-28T02:22:43;100535.84;;;3.12;100.00
59053;BME280;44843;44.728;10.396;2023-01-28T02:31:07;100536.56;;;3.18;100.00
59053;BME280;44843;44.728;10.396;2023-01-28T02:33:43;100544.94;;;3.26;100.00
59053;BME280;44843;44.728;10.396;2023-01-28T02:36:25;100538.16;;;3.22;100.00
59053;BME280;44843;44.728;10.396;2023-01-28T02:38:53;100538.41;;;3.13;100.00
59053;BME280;44843;44.728;10.396;2023-01-28T02:41:25;100539.16;;;3.17;100.00
59053;BME280;44843;44.728;10.396;2023-01-28T02:43:53;100544.09;;;3.26;100.00
59053;BME280;44843;44.728;10.396;2023-01-28T02:55:39;100545.06;;;3.22;100.00
59053;BME280;44843;44.728;10.396;2023-01-28T03:00:49;100552.38;;;3.04;100.00
59053;BME280;44843;44.728;10.396;2023-01-28T03:03:27;100553.38;;;2.97;100.00
59053;BME280;44843;44.728;10.396;2023-01-28T03:05:57;100548.44;;;2.88;100.00
59053;BME280;44843;44.728;10.396;2023-01-28T03:08:56;100549.25;;;2.90;100.00
59053;BME280;44843;44.728;10.396;2023-01-28T03:11:45;100551.09;;;2.86;100.00
59053;BME280;44843;44.728;10.396;2023-01-28T03:14:31;100566.69;;;2.80;100.00
59053;BME280;44843;44.728;10.396;2023-01-28T03:17:22;100561.53;;;2.80;100.00
59053;BME280;44843;44.728;10.396;2023-01-28T03:20:11;100558.88;;;2.82;100.00
59053;BME280;44843;44.728;10.396;2023-01-28T03:23:00;100571.78;;;2.82;100.00
59053;BME280;44843;44.728;10.396;2023-01-28T03:25:48;100567.50;;;2.82;100.00
59053;BME280;44843;44.728;10.396;2023-01-28T03:28:34;100565.88;;;2.78;100.00
59053;BME280;44843;44.728;10.396;2023-01-28T03:31:19;100575.13;;;2.85;100.00
59053;BME280;44843;44.728;10.396;2023-01-28T03:34:06;100575.97;;;2.86;100.00
59053;BME280;44843;44.728;10.396;2023-01-28T03:36:53;100579.72;;;2.73;100.00
59053;BME280;44843;44.728;10.396;2023-01-28T03:39:25;100575.94;;;2.87;100.00
59053;BME280;44843;44.728;10.396;2023-01-28T03:44:23;100573.50;;;2.81;100.00
59053;BME280;44843;44.728;10.396;2023-01-28T03:47:07;100584.09;;;2.69;100.00
59053;BME280;44843;44.728;10.396;2023-01-28T03:49:33;100580.78;;;2.64;100.00
59053;BME280;44843;44.728;10.396;2023-01-28T03:51:58;100587.72;;;2.60;100.00
59053;BME280;44843;44.728;10.396;2023-01-28T03:54:24;100586.22;;;2.52;100.00
59053;BME280;44843;44.728;10.396;2023-01-28T03:56:49;100582.94;;;2.43;100.00
59053;BME280;44843;44.728;10.396;2023-01-28T03:59:14;100587.38;;;2.37;100.00
59053;BME280;44843;44.728;10.396;2023-01-28T04:01:40;100585.31;;;2.53;100.00
59053;BME280;44843;44.728;10.396;2023-01-28T04:04:05;100586.47;;;2.39;100.00
59053;BME280;44843;44.728;10.396;2023-01-28T04:06:30;100587.06;;;2.51;100.00
59053;BME280;44843;44.728;10.396;2023-01-28T04:08:56;100592.19;;;2.52;100.00
59053;BME280;44843;44.728;10.396;2023-01-28T04:11:24;100584.63;;;2.44;100.00
59053;BME280;44843;44.728;10.396;2023-01-28T04:13:50;100579.19;;;2.58;100.00
59053;BME280;44843;44.728;10.396;2023-01-28T04:16:17;100581.78;;;2.57;100.00
59053;BME280;44843;44.728;10.396;2023-01-28T04:18:43;100590.97;;;2.68;100.00
59053;BME280;44843;44.728;10.396;2023-01-28T04:21:09;100586.63;;;2.71;100.00
59053;BME280;44843;44.728;10.396;2023-01-28T04:23:35;100586.56;;;2.74;100.00
59053;BME280;44843;44.728;10.396;2023-01-28T04:26:01;100580.13;;;2.54;100.00
59053;BME280;44843;44.728;10.396;2023-01-28T04:28:29;100575.59;;;2.65;100.00
59053;BME280;44843;44.728;10.396;2023-01-28T04:30:55;100575.56;;;2.67;100.00
59053;BME280;44843;44.728;10.396;2023-01-28T04:33:20;100575.72;;;2.59;100.00
59053;BME280;44843;44.728;10.396;2023-01-28T04:35:46;100577.66;;;2.50;100.00
59053;BME280;44843;44.728;10.396;2023-01-28T04:38:11;100576.19;;;2.38;100.00
59053;BME280;44843;44.728;10.396;2023-01-28T04:40:36;100583.91;;;2.38;100.00
59053;BME280;44843;44.728;10.396;2023-01-28T04:43:02;100582.22;;;2.37;100.00
59053;BME280;44843;44.728;10.396;2023-01-28T04:45:27;100586.38;;;2.42;100.00
59053;BME280;44843;44.728;10.396;2023-01-28T04:47:53;100583.88;;;2.39;100.00
59053;BME280;44843;44.728;10.396;2023-01-28T04:50:18;100585.81;;;2.30;100.00
59053;BME280;44843;44.728;10.396;2023-01-28T04:52:44;100594.53;;;2.22;100.00
59053;BME280;44843;44.728;10.396;2023-01-28T04:55:09;100594.41;;;2.29;100.00
59053;BME280;44843;44.728;10.396;2023-01-28T04:57:35;100593.59;;;2.26;100.00
59053;BME280;44843;44.728;10.396;2023-01-28T05:00:01;100586.72;;;2.27;100.00
59053;BME280;44843;44.728;10.396;2023-01-28T05:02:26;100590.78;;;2.39;100.00
59053;BME280;44843;44.728;10.396;2023-01-28T05:04:52;100598.25;;;2.50;100.00
59053;BME280;44843;44.728;10.396;2023-01-28T05:07:17;100595.69;;;2.50;100.00
59053;BME280;44843;44.728;10.396;2023-01-28T05:09:42;100597.50;;;2.44;100.00
59053;BME280;44843;44.728;10.396;2023-01-28T05:12:08;100601.16;;;2.34;100.00
59053;BME280;44843;44.728;10.396;2023-01-28T05:14:33;100607.28;;;2.29;100.00
59053;BME280;44843;44.728;10.396;2023-01-28T05:16:58;100607.50;;;2.18;100.00
59053;BME280;44843;44.728;10.396;2023-01-28T05:19:24;100611.03;;;2.12;100.00
59053;BME280;44843;44.728;10.396;2023-01-28T05:21:49;100613.53;;;2.15;100.00
59053;BME280;44843;44.728;10.396;2023-01-28T05:24:15;100614.41;;;2.14;100.00
59053;BME280;44843;44.728;10.396;2023-01-28T05:26:40;100615.19;;;2.19;100.00
59053;BME280;44843;44.728;10.396;2023-01-28T05:29:06;100623.81;;;2.17;100.00
59053;BME280;44843;44.728;10.396;2023-01-28T05:31:31;100625.47;;;2.21;100.00
59053;BME280;44843;44.728;10.396;2023-01-28T05:33:57;100627.13;;;2.23;100.00
59053;BME280;44843;44.728;10.396;2023-01-28T05:36:22;100627.25;;;2.16;100.00
59053;BME280;44843;44.728;10.396;2023-01-28T05:38:47;100630.63;;;2.18;100.00
59053;BME280;44843;44.728;10.396;2023-01-28T05:41:13;100634.19;;;2.12;100.00
59053;BME280;44843;44.728;10.396;2023-01-28T05:43:38;100639.38;;;2.11;100.00
59053;BME280;44843;44.728;10.396;2023-01-28T05:46:04;100639.28;;;2.14;100.00
59053;BME280;44843;44.728;10.396;2023-01-28T05:48:30;100637.44;;;2.20;100.00
59053;BME280;44843;44.728;10.396;2023-01-28T05:50:55;100642.66;;;2.17;100.00
59053;BME280;44843;44.728;10.396;2023-01-28T05:53:20;100638.03;;;2.35;100.00
59053;BME280;44843;44.728;10.396;2023-01-28T05:55:50;100638.84;;;2.37;100.00
59053;BME280;44843;44.728;10.396;2023-01-28T05:58:16;100646.41;;;2.44;100.00
59053;BME280;44843;44.728;10.396;2023-01-28T06:00:41;100647.28;;;2.45;100.00
59053;BME280;44843;44.728;10.396;2023-01-28T06:03:06;100653.34;;;2.41;100.00
59053;BME280;44843;44.728;10.396;2023-01-28T06:05:32;100649.97;;;2.39;100.00
59053;BME280;44843;44.728;10.396;2023-01-28T06:07:57;100645.72;;;2.36;100.00
59053;BME280;44843;44.728;10.396;2023-01-28T06:10:22;100649.16;;;2.35;100.00
59053;BME280;44843;44.728;10.396;2023-01-28T06:12:48;100654.44;;;2.29;100.00
59053;BME280;44843;44.728;10.396;2023-01-28T06:15:13;100657.94;;;2.25;100.00
59053;BME280;44843;44.728;10.396;2023-01-28T06:17:38;100661.44;;;2.22;100.00
59053;BME280;44843;44.728;10.396;2023-01-28T06:20:04;100665.59;;;2.30;100.00
59053;BME280;44843;44.728;10.396;2023-01-28T06:22:30;100667.25;;;2.32;100.00
59053;BME280;44843;44.728;10.396;2023-01-28T06:24:55;100665.50;;;2.34;100.00
59053;BME280;44843;44.728;10.396;2023-01-28T06:27:20;100664.72;;;2.29;100.00
59053;BME280;44843;44.728;10.396;2023-01-28T06:29:46;100664.78;;;2.28;100.00
59053;BME280;44843;44.728;10.396;2023-01-28T06:32:11;100676.03;;;2.22;100.00
59053;BME280;44843;44.728;10.396;2023-01-28T06:34:36;100688.81;;;2.26;100.00
59053;BME280;44843;44.728;10.396;2023-01-28T06:37:02;100681.75;;;2.36;100.00
59053;BME280;44843;44.728;10.396;2023-01-28T06:39:28;100687.69;;;2.40;100.00
59053;BME280;44843;44.728;10.396;2023-01-28T06:41:56;100694.47;;;2.44;100.00
59053;BME280;44843;44.728;10.396;2023-01-28T06:44:21;100697.22;;;2.36;100.00
59053;BME280;44843;44.728;10.396;2023-01-28T06:46:48;100698.97;;;2.33;100.00
59053;BME280;44843;44.728;10.396;2023-01-28T06:49:13;100706.91;;;2.22;100.00
59053;BME280;44843;44.728;10.396;2023-01-28T06:51:39;100700.06;;;2.21;100.00
59053;BME280;44843;44.728;10.396;2023-01-28T06:54:04;100704.31;;;2.23;100.00
59053;BME280;44843;44.728;10.396;2023-01-28T06:56:30;100703.56;;;2.17;100.00
59053;BME280;44843;44.728;10.396;2023-01-28T06:58:55;100703.63;;;2.14;100.00
59053;BME280;44843;44.728;10.396;2023-01-28T07:01:21;100708.81;;;2.11;100.00
59053;BME280;44843;44.728;10.396;2023-01-28T07:03:46;100710.56;;;2.09;100.00
59053;BME280;44843;44.728;10.396;2023-01-28T07:06:11;100719.31;;;2.00;100.00
59053;BME280;44843;44.728;10.396;2023-01-28T07:08:37;100722.75;;;1.99;100.00
59053;BME280;44843;44.728;10.396;2023-01-28T07:11:04;100726.00;;;2.09;100.00
59053;BME280;44843;44.728;10.396;2023-01-28T07:13:29;100730.31;;;2.08;100.00
59053;BME280;44843;44.728;10.396;2023-01-28T07:15:54;100733.75;;;2.07;100.00
59053;BME280;44843;44.728;10.396;2023-01-28T07:18:20;100742.31;;;2.08;100.00
59053;BME280;44843;44.728;10.396;2023-01-28T07:20:45;100736.22;;;2.13;100.00
59053;BME280;44843;44.728;10.396;2023-01-28T07:23:11;100748.88;;;2.25;100.00
59053;BME280;44843;44.728;10.396;2023-01-28T07:25:36;100746.91;;;2.38;100.00
59053;BME280;44843;44.728;10.396;2023-01-28T07:28:01;100742.56;;;2.40;100.00
59053;BME280;44843;44.728;10.396;2023-01-28T07:30:27;100745.13;;;2.42;100.00
59053;BME280;44843;44.728;10.396;2023-01-28T07:32:56;100747.72;;;2.40;100.00
59053;BME280;44843;44.728;10.396;2023-01-28T07:35:23;100750.34;;;2.39;100.00
59053;BME280;44843;44.728;10.396;2023-01-28T07:37:53;100754.78;;;2.31;100.00
59053;BME280;44843;44.728;10.396;2023-01-28T07:40:18;100757.34;;;2.32;100.00
59053;BME280;44843;44.728;10.396;2023-01-28T07:42:44;100752.13;;;2.35;100.00
59053;BME280;44843;44.728;10.396;2023-01-28T07:45:10;100757.13;;;2.43;100.00
59053;BME280;44843;44.728;10.396;2023-01-28T07:47:35;100760.38;;;2.51;100.00
59053;BME280;44843;44.728;10.396;2023-01-28T07:50:01;100762.94;;;2.53;100.00
59053;BME280;44843;44.728;10.396;2023-01-28T07:52:26;100762.94;;;2.53;100.00
59053;BME280;44843;44.728;10.396;2023-01-28T07:54:51;100768.78;;;2.62;100.00
59053;BME280;44843;44.728;10.396;2023-01-28T07:57:17;100763.56;;;2.65;100.00
59053;BME280;44843;44.728;10.396;2023-01-28T07:59:48;100773.78;;;2.68;100.00
59053;BME280;44843;44.728;10.396;2023-01-28T08:02:15;100776.41;;;2.67;100.00
59053;BME280;44843;44.728;10.396;2023-01-28T08:04:41;100773.03;;;2.63;100.00
59053;BME280;44843;44.728;10.396;2023-01-28T08:07:06;100775.44;;;2.71;100.00
59053;BME280;44843;44.728;10.396;2023-01-28T08:09:31;100773.56;;;2.81;100.00
59053;BME280;44843;44.728;10.396;2023-01-28T08:12:00;100772.44;;;2.93;100.00
59053;BME280;44843;44.728;10.396;2023-01-28T08:14:26;100769.56;;;3.08;100.00
59053;BME280;44843;44.728;10.396;2023-01-28T08:16:51;100772.81;;;3.18;100.00
59053;BME280;44843;44.728;10.396;2023-01-28T08:19:16;100785.84;;;3.10;100.00
59053;BME280;44843;44.728;10.396;2023-01-28T08:21:42;100787.47;;;3.14;100.00
59053;BME280;44843;44.728;10.396;2023-01-28T08:24:08;100791.75;;;3.15;100.00
59053;BME280;44843;44.728;10.396;2023-01-28T08:26:34;100786.56;;;3.17;100.00
59053;BME280;44843;44.728;10.396;2023-01-28T08:28:59;100788.31;;;3.15;100.00
59053;BME280;44843;44.728;10.396;2023-01-28T08:31:24;100796.75;;;3.23;100.00
59053;BME280;44843;44.728;10.396;2023-01-28T08:33:51;100804.31;;;3.30;100.00
59053;BME280;44843;44.728;10.396;2023-01-28T08:36:16;100799.94;;;3.34;100.00
59053;BME280;44843;44.728;10.396;2023-01-28T08:38:42;100805.78;;;3.41;100.00
59053;BME280;44843;44.728;10.396;2023-01-28T08:41:07;100809.25;;;3.41;100.00
59053;BME280;44843;44.728;10.396;2023-01-28T08:43:33;100808.25;;;3.47;100.00
59053;BME280;44843;44.728;10.396;2023-01-28T08:45:58;100808.25;;;3.45;100.00
59053;BME280;44843;44.728;10.396;2023-01-28T08:48:23;100815.88;;;3.51;100.00
59053;BME280;44843;44.728;10.396;2023-01-28T08:50:49;100818.31;;;3.58;100.00
59053;BME280;44843;44.728;10.396;2023-01-28T08:53:17;100815.75;;;3.56;100.00
59053;BME280;44843;44.728;10.396;2023-01-28T08:55:44;100814.47;;;3.76;100.00
59053;BME280;44843;44.728;10.396;2023-01-28T08:58:12;100815.06;;;3.87;100.00
59053;BME280;44843;44.728;10.396;2023-01-28T09:00:38;100814.53;;;4.10;100.00
59053;BME280;44843;44.728;10.396;2023-01-28T09:03:04;100812.47;;;4.24;100.00
59053;BME280;44843;44.728;10.396;2023-01-28T09:05:30;100823.53;;;4.28;100.00
59053;BME280;44843;44.728;10.396;2023-01-28T09:08:03;100819.66;;;4.11;100.00
59053;BME280;44843;44.728;10.396;2023-01-28T09:10:29;100819.78;;;4.05;100.00
59053;BME280;44843;44.728;10.396;2023-01-28T09:12:54;100825.09;;;3.99;100.00
59053;BME280;44843;44.728;10.396;2023-01-28T09:15:19;100820.84;;;3.98;100.00
59053;BME280;44843;44.728;10.396;2023-01-28T09:17:45;100830.34;;;3.96;100.00
59053;BME280;44843;44.728;10.396;2023-01-28T09:20:11;100830.50;;;3.88;100.00
59053;BME280;44843;44.728;10.396;2023-01-28T09:22:36;100835.69;;;3.87;100.00
59053;BME280;44843;44.728;10.396;2023-01-28T09:25:02;100827.94;;;3.88;100.00
59053;BME280;44843;44.728;10.396;2023-01-28T09:27:27;100834.75;;;3.91;100.00
59053;BME280;44843;44.728;10.396;2023-01-28T09:29:53;100839.16;;;3.87;100.00
59053;BME280;44843;44.728;10.396;2023-01-28T09:32:18;100833.22;;;3.82;100.00
59053;BME280;44843;44.728;10.396;2023-01-28T09:34:43;100829.53;;;3.94;100.00
59053;BME280;44843;44.728;10.396;2023-01-28T09:37:10;100839.75;;;3.99;100.00
59053;BME280;44843;44.728;10.396;2023-01-28T09:39:36;100837.28;;;3.94;100.00
59053;BME280;44843;44.728;10.396;2023-01-28T09:47:24;100843.63;;;4.15;100.00
59053;BME280;44843;44.728;10.396;2023-01-28T09:49:53;100839.09;;;4.26;100.00
59053;BME280;44843;44.728;10.396;2023-01-28T09:52:22;100837.22;;;4.31;100.00
59053;BME280;44843;44.728;10.396;2023-01-28T09:54:54;100841.47;;;4.32;100.00
59053;BME280;44843;44.728;10.396;2023-01-28T09:57:24;100844.88;;;4.34;100.00
59053;BME280;44843;44.728;10.396;2023-01-28T09:59:50;100846.44;;;4.42;100.00
59053;BME280;44843;44.728;10.396;2023-01-28T10:05:20;100843.78;;;4.43;100.00
59053;BME280;44843;44.728;10.396;2023-01-28T10:10:19;100845.38;;;4.49;100.00
59053;BME280;44843;44.728;10.396;2023-01-28T10:17:48;100849.13;;;4.70;100.00
59053;BME280;44843;44.728;10.396;2023-01-28T10:20:24;100843.06;;;4.72;100.00
59053;BME280;44843;44.728;10.396;2023-01-28T10:23:04;100837.78;;;4.75;100.00
59053;BME280;44843;44.728;10.396;2023-01-28T10:25:32;100843.59;;;4.84;100.00
59053;BME280;44843;44.728;10.396;2023-01-28T10:28:00;100844.03;;;5.00;100.00
59053;BME280;44843;44.728;10.396;2023-01-28T10:30:30;100842.28;;;5.00;100.00
59053;BME280;44843;44.728;10.396;2023-01-28T10:33:14;100845.69;;;5.02;100.00
59053;BME280;44843;44.728;10.396;2023-01-28T10:35:41;100842.06;;;5.37;100.00
59053;BME280;44843;44.728;10.396;2023-01-28T10:38:11;100843.59;;;5.45;100.00
59053;BME280;44843;44.728;10.396;2023-01-28T10:40:40;100838.66;;;5.37;100.00
59053;BME280;44843;44.728;10.396;2023-01-28T10:43:06;100846.78;;;5.53;100.00
59053;BME280;44843;44.728;10.396;2023-01-28T10:51:10;100836.19;;;5.03;100.00
59053;BME280;44843;44.728;10.396;2023-01-28T10:53:42;100841.50;;;5.28;100.00
59053;BME280;44843;44.728;10.396;2023-01-28T10:56:22;100835.28;;;5.33;100.00
59053;BME280;44843;44.728;10.396;2023-01-28T11:04:05;100824.34;;;5.25;100.00
59053;BME280;44843;44.728;10.396;2023-01-28T11:06:30;100827.88;;;5.23;100.00
59053;BME280;44843;44.728;10.396;2023-01-28T11:08:56;100832.38;;;5.44;100.00
59053;BME280;44843;44.728;10.396;2023-01-28T11:11:26;100822.28;;;5.36;100.00
59053;BME280;44843;44.728;10.396;2023-01-28T11:13:53;100825.06;;;5.30;100.00
59053;BME280;44843;44.728;10.396;2023-01-28T11:16:20;100822.50;;;5.29;100.00
59053;BME280;44843;44.728;10.396;2023-01-28T11:18:50;100828.22;;;5.40;100.00
59053;BME280;44843;44.728;10.396;2023-01-28T11:21:28;100819.84;;;5.32;100.00
59053;BME280;44843;44.728;10.396;2023-01-28T11:23:57;100813.38;;;5.47;100.00
59053;BME280;44843;44.728;10.396;2023-01-28T11:26:26;100819.47;;;5.72;100.00
59053;BME280;44843;44.728;10.396;2023-01-28T11:28:52;100813.16;;;5.81;100.00
59053;BME280;44843;44.728;10.396;2023-01-28T11:31:19;100808.31;;;5.70;100.00
59053;BME280;44843;44.728;10.396;2023-01-28T11:34:01;100814.91;;;5.52;100.00
59053;BME280;44843;44.728;10.396;2023-01-28T11:36:30;100815.69;;;5.83;100.00
59053;BME280;44843;44.728;10.396;2023-01-28T11:38:59;100803.56;;;5.85;100.00
59053;BME280;44843;44.728;10.396;2023-01-28T11:41:31;100801.50;;;5.68;100.00
59053;BME280;44843;44.728;10.396;2023-01-28T11:43:59;100810.03;;;5.71;100.00
59053;BME280;44843;44.728;10.396;2023-01-28T12:06:41;100777.72;;;5.83;100.00
59053;BME280;44843;44.728;10.396;2023-01-28T12:11:57;100773.19;;;5.90;100.00
59053;BME280;44843;44.728;10.396;2023-01-28T12:19:48;100752.16;;;6.51;97.54
59053;BME280;44843;44.728;10.396;2023-01-28T12:46:00;100730.25;;;6.11;93.27
59053;BME280;44843;44.728;10.396;2023-01-28T12:48:54;100731.03;;;6.13;91.16
59053;BME280;44843;44.728;10.396;2023-01-28T12:51:24;100729.72;;;6.26;90.12
59053;BME280;44843;44.728;10.396;2023-01-28T12:53:53;100730.84;;;6.19;88.43
59053;BME280;44843;44.728;10.396;2023-01-28T12:56:33;100725.50;;;6.24;91.04
59053;BME280;44843;44.728;10.396;2023-01-28T13:04:41;100732.66;;;6.40;88.71
59053;BME280;44843;44.728;10.396;2023-01-28T13:07:14;100728.75;;;6.54;82.89
59053;BME280;44843;44.728;10.396;2023-01-28T13:09:48;100721.81;;;6.54;78.28
59053;BME280;44843;44.728;10.396;2023-01-28T13:12:16;100733.94;;;6.54;76.52
59053;BME280;44843;44.728;10.396;2023-01-28T13:14:43;100723.66;;;6.51;78.87
59053;BME280;44843;44.728;10.396;2023-01-28T13:17:23;100729.06;;;6.45;77.96
59053;BME280;44843;44.728;10.396;2023-01-28T13:19:49;100727.34;;;6.20;77.45
59053;BME280;44843;44.728;10.396;2023-01-28T13:22:35;100731.19;;;6.33;74.99
59053;BME280;44843;44.728;10.396;2023-01-28T13:25:24;100725.75;;;6.41;77.05
59053;BME280;44843;44.728;10.396;2023-01-28T13:28:03;100732.72;;;6.39;76.14
59053;BME280;44843;44.728;10.396;2023-01-28T13:30:34;100727.25;;;6.47;78.92
59053;BME280;44843;44.728;10.396;2023-01-28T13:33:05;100724.50;;;6.51;74.68
59053;BME280;44843;44.728;10.396;2023-01-28T13:35:39;100718.59;;;6.48;72.80
59053;BME280;44843;44.728;10.396;2023-01-28T13:38:14;100721.19;;;6.48;73.71
59053;BME280;44843;44.728;10.396;2023-01-28T13:40:41;100730.66;;;6.49;74.09
59053;BME280;44843;44.728;10.396;2023-01-28T13:46:26;100736.22;;;6.62;77.11
59053;BME280;44843;44.728;10.396;2023-01-28T13:48:54;100734.94;;;6.73;75.20
59053;BME280;44843;44.728;10.396;2023-01-28T13:51:26;100736.41;;;6.80;74.25
59053;BME280;44843;44.728;10.396;2023-01-28T13:54:05;100730.03;;;6.89;73.05
59053;BME280;44843;44.728;10.396;2023-01-28T13:59:36;100739.34;;;7.17;71.82
59053;BME280;44843;44.728;10.396;2023-01-28T14:09:54;100746.25;;;7.40;69.29
59053;BME280;44843;44.728;10.396;2023-01-28T14:15:06;100746.13;;;7.21;67.75
59053;BME280;44843;44.728;10.396;2023-01-28T14:22:41;100752.44;;;7.14;63.54
59053;BME280;44843;44.728;10.396;2023-01-28T14:25:11;100756.72;;;7.15;65.46
59053;BME280;44843;44.728;10.396;2023-01-28T14:27:37;100759.38;;;7.13;65.11
59053;BME280;44843;44.728;10.396;2023-01-28T14:32:29;100766.25;;;7.14;65.21
59053;BME280;44843;44.728;10.396;2023-01-28T14:34:55;100764.06;;;7.04;64.45
59053;BME280;44843;44.728;10.396;2023-01-28T14:37:23;100765.06;;;6.99;65.37
59053;BME280;44843;44.728;10.396;2023-01-28T14:39:54;100766.16;;;6.94;66.06
59053;BME280;44843;44.728;10.396;2023-01-28T14:42:22;100771.75;;;7.07;66.79
59053;BME280;44843;44.728;10.396;2023-01-28T14:45:13;100771.91;;;7.02;66.18
59053;BME280;44843;44.728;10.396;2023-01-28T14:47:38;100771.22;;;6.97;65.53
59053;BME280;44843;44.728;10.396;2023-01-28T14:50:27;100776.53;;;7.17;65.74
59053;BME280;44843;44.728;10.396;2023-01-28T14:58:08;100773.75;;;7.22;65.71
59053;BME280;44843;44.728;10.396;2023-01-28T15:00:36;100785.72;;;7.03;66.39
59053;BME280;44843;44.728;10.396;2023-01-28T15:03:18;100782.50;;;6.96;66.46
59053;BME280;44843;44.728;10.396;2023-01-28T15:05:43;100779.91;;;6.96;67.17
59053;BME280;44843;44.728;10.396;2023-01-28T15:08:18;100784.41;;;6.91;67.82